sensor_id;sensor_type;location;lat;lon;timestamp;temperature;humidity
38183;DHT22;23991;52.430;10.586;2023-03-23T00:11:21;13.00;63.60
38183;DHT22;23991;52.430;10.586;2023-03-23T00:13:48;12.90;63.80
38183;DHT22;23991;52.430;10.586;2023-03-23T00:16:22;13.00;64.70
38183;DHT22;23991;52.430;10.586;2023-03-23T00:18:54;12.90;65.40
38183;DHT22;23991;52.430;10.586;2023-03-23T00:21:22;12.90;65.90
38183;DHT22;23991;52.430;10.586;2023-03-23T00:24:04;12.90;66.10
38183;DHT22;23991;52.430;10.586;2023-03-23T00:26:31;12.90;66.60
38183;DHT22;23991;52.430;10.586;2023-03-23T00:29:03;12.90;67.00
38183;DHT22;23991;52.430;10.586;2023-03-23T00:41:35;12.80;68.10
38183;DHT22;23991;52.430;10.586;2023-03-23T00:44:02;12.80;68.90
38183;DHT22;23991;52.430;10.586;2023-03-23T00:46:29;12.80;69.20
38183;DHT22;23991;52.430;10.586;2023-03-23T00:48:55;12.80;69.70
38183;DHT22;23991;52.430;10.586;2023-03-23T00:51:23;12.80;70.60
38183;DHT22;23991;52.430;10.586;2023-03-23T00:53:48;12.80;71.10
38183;DHT22;23991;52.430;10.586;2023-03-23T00:56:14;12.70;72.30
38183;DHT22;23991;52.430;10.586;2023-03-23T00:58:40;12.60;73.30
38183;DHT22;23991;52.430;10.586;2023-03-23T01:11:14;12.50;75.60
38183;DHT22;23991;52.430;10.586;2023-03-23T01:13:44;12.50;76.10
38183;DHT22;23991;52.430;10.586;2023-03-23T01:16:10;12.50;76.30
38183;DHT22;23991;52.430;10.586;2023-03-23T01:18:37;12.50;76.40
38183;DHT22;23991;52.430;10.586;2023-03-23T01:21:11;12.50;76.40
38183;DHT22;23991;52.430;10.586;2023-03-23T01:23:39;12.50;76.60
38183;DHT22;23991;52.430;10.586;2023-03-23T01:26:24;12.50;76.80
38183;DHT22;23991;52.430;10.586;2023-03-23T01:28:50;12.50;76.80
38183;DHT22;23991;52.430;10.586;2023-03-23T01:41:23;12.40;77.70
38183;DHT22;23991;52.430;10.586;2023-03-23T01:46:29;12.40;77.80
38183;DHT22;23991;52.430;10.586;2023-03-23T01:48:57;12.40;77.90
38183;DHT22;23991;52.430;10.586;2023-03-23T01:51:24;12.30;77.90
38183;DHT22;23991;52.430;10.586;2023-03-23T01:53:55;12.30;77.70
38183;DHT22;23991;52.430;10.586;2023-03-23T01:56:24;12.30;77.80
38183;DHT22;23991;52.430;10.586;2023-03-23T01:58:52;12.30;78.00
38183;DHT22;23991;52.430;10.586;2023-03-23T02:08:26;12.30;78.30
38183;DHT22;23991;52.430;10.586;2023-03-23T02:10:54;12.30;78.10
38183;DHT22;23991;52.430;10.586;2023-03-23T02:13:19;12.30;78.10
38183;DHT22;23991;52.430;10.586;2023-03-23T02:15:50;12.30;78.20
38183;DHT22;23991;52.430;10.586;2023-03-23T02:18:37;12.30;78.30
38183;DHT22;23991;52.430;10.586;2023-03-23T02:21:20;12.30;78.40
38183;DHT22;23991;52.430;10.586;2023-03-23T02:35:13;12.30;78.50
38183;DHT22;23991;52.430;10.586;2023-03-23T02:40:48;12.20;78.80
38183;DHT22;23991;52.430;10.586;2023-03-23T02:43:17;12.20;79.10
38183;DHT22;23991;52.430;10.586;2023-03-23T02:45:44;12.20;78.90
38183;DHT22;23991;52.430;10.586;2023-03-23T02:48:13;12.30;79.00
38183;DHT22;23991;52.430;10.586;2023-03-23T02:50:42;12.20;79.10
38183;DHT22;23991;52.430;10.586;2023-03-23T03:00:15;12.20;79.10
38183;DHT22;23991;52.430;10.586;2023-03-23T03:02:47;12.20;79.40
38183;DHT22;23991;52.430;10.586;2023-03-23T03:13:22;12.20;79.00
38183;DHT22;23991;52.430;10.586;2023-03-23T03:16:02;12.20;79.00
38183;DHT22;23991;52.430;10.586;2023-03-23T03:18:32;12.20;79.00
38183;DHT22;23991;52.430;10.586;2023-03-23T03:31:06;12.10;78.90
38183;DHT22;23991;52.430;10.586;2023-03-23T03:33:33;12.10;78.70
38183;DHT22;23991;52.430;10.586;2023-03-23T03:36:02;12.10;78.70
38183;DHT22;23991;52.430;10.586;2023-03-23T03:38:28;12.00;78.80
38183;DHT22;23991;52.430;10.586;2023-03-23T03:40:56;12.10;78.80
38183;DHT22;23991;52.430;10.586;2023-03-23T03:43:22;12.00;78.90
38183;DHT22;23991;52.430;10.586;2023-03-23T03:45:47;12.00;78.90
38183;DHT22;23991;52.430;10.586;2023-03-23T03:48:13;12.00;79.20
38183;DHT22;23991;52.430;10.586;2023-03-23T03:50:38;12.00;79.50
38183;DHT22;23991;52.430;10.586;2023-03-23T04:00:13;12.00;80.50
38183;DHT22;23991;52.430;10.586;2023-03-23T04:02:43;11.90;80.70
38183;DHT22;23991;52.430;10.586;2023-03-23T04:05:12;11.90;80.90
38183;DHT22;23991;52.430;10.586;2023-03-23T04:07:38;12.00;80.90
38183;DHT22;23991;52.430;10.586;2023-03-23T04:10:08;12.00;80.90
38183;DHT22;23991;52.430;10.586;2023-03-23T04:12:35;11.90;80.90
38183;DHT22;23991;52.430;10.586;2023-03-23T04:15:01;11.90;80.80
38183;DHT22;23991;52.430;10.586;2023-03-23T04:17:26;11.90;80.80
38183;DHT22;23991;52.430;10.586;2023-03-23T04:19:54;11.90;81.00
38183;DHT22;23991;52.430;10.586;2023-03-23T04:32:28;11.80;81.80
38183;DHT22;23991;52.430;10.586;2023-03-23T04:34:57;11.80;82.00
38183;DHT22;23991;52.430;10.586;2023-03-23T04:37:24;11.80;82.00
38183;DHT22;23991;52.430;10.586;2023-03-23T04:39:55;11.80;82.10
38183;DHT22;23991;52.430;10.586;2023-03-23T04:42:30;11.80;82.10
38183;DHT22;23991;52.430;10.586;2023-03-23T04:44:57;11.80;82.20
38183;DHT22;23991;52.430;10.586;2023-03-23T04:47:24;11.80;82.10
38183;DHT22;23991;52.430;10.586;2023-03-23T04:49:50;11.80;82.10
38183;DHT22;23991;52.430;10.586;2023-03-23T05:02:27;11.70;82.10
38183;DHT22;23991;52.430;10.586;2023-03-23T05:04:56;11.70;81.90
38183;DHT22;23991;52.430;10.586;2023-03-23T05:07:23;11.70;81.90
38183;DHT22;23991;52.430;10.586;2023-03-23T05:09:49;11.70;81.90
38183;DHT22;23991;52.430;10.586;2023-03-23T05:12:15;11.70;81.70
38183;DHT22;23991;52.430;10.586;2023-03-23T05:14:41;11.70;81.70
38183;DHT22;23991;52.430;10.586;2023-03-23T05:17:07;11.70;81.60
38183;DHT22;23991;52.430;10.586;2023-03-23T05:19:33;11.70;81.70
38183;DHT22;23991;52.430;10.586;2023-03-23T05:32:05;11.70;81.30
38183;DHT22;23991;52.430;10.586;2023-03-23T05:34:36;11.80;81.00
38183;DHT22;23991;52.430;10.586;2023-03-23T05:37:03;11.80;80.70
38183;DHT22;23991;52.430;10.586;2023-03-23T05:39:30;11.80;80.60
38183;DHT22;23991;52.430;10.586;2023-03-23T05:41:56;11.80;80.70
38183;DHT22;23991;52.430;10.586;2023-03-23T05:44:22;11.70;80.70
38183;DHT22;23991;52.430;10.586;2023-03-23T05:46:48;11.80;80.70
38183;DHT22;23991;52.430;10.586;2023-03-23T05:49:14;11.70;80.60
38183;DHT22;23991;52.430;10.586;2023-03-23T05:51:55;11.80;80.50
38183;DHT22;23991;52.430;10.586;2023-03-23T05:54:21;11.80;80.20
38183;DHT22;23991;52.430;10.586;2023-03-23T05:56:46;11.90;79.80
38183;DHT22;23991;52.430;10.586;2023-03-23T05:59:14;11.90;79.50
38183;DHT22;23991;52.430;10.586;2023-03-23T06:01:43;12.00;79.30
38183;DHT22;23991;52.430;10.586;2023-03-23T06:04:29;12.00;79.10
38183;DHT22;23991;52.430;10.586;2023-03-23T06:06:55;12.10;78.50
38183;DHT22;23991;52.430;10.586;2023-03-23T06:09:22;12.20;78.30
38183;DHT22;23991;52.430;10.586;2023-03-23T06:11:49;12.20;78.00
38183;DHT22;23991;52.430;10.586;2023-03-23T06:14:14;12.30;77.70
38183;DHT22;23991;52.430;10.586;2023-03-23T06:20:19;12.50;77.20
38183;DHT22;23991;52.430;10.586;2023-03-23T06:22:44;12.50;76.80
38183;DHT22;23991;52.430;10.586;2023-03-23T06:25:10;12.60;76.50
38183;DHT22;23991;52.430;10.586;2023-03-23T06:27:37;12.70;76.20
38183;DHT22;23991;52.430;10.586;2023-03-23T06:30:04;12.80;75.80
38183;DHT22;23991;52.430;10.586;2023-03-23T06:32:30;12.80;75.60
38183;DHT22;23991;52.430;10.586;2023-03-23T06:34:56;12.80;75.40
38183;DHT22;23991;52.430;10.586;2023-03-23T06:37:22;12.90;75.30
38183;DHT22;23991;52.430;10.586;2023-03-23T06:39:48;12.90;74.90
38183;DHT22;23991;52.430;10.586;2023-03-23T06:52:25;13.20;74.50
38183;DHT22;23991;52.430;10.586;2023-03-23T06:54:51;13.30;74.30
38183;DHT22;23991;52.430;10.586;2023-03-23T06:57:17;13.30;74.30
38183;DHT22;23991;52.430;10.586;2023-03-23T06:59:44;13.40;74.00
38183;DHT22;23991;52.430;10.586;2023-03-23T07:02:13;13.50;73.90
38183;DHT22;23991;52.430;10.586;2023-03-23T07:04:40;13.50;73.80
38183;DHT22;23991;52.430;10.586;2023-03-23T07:07:07;13.60;73.60
38183;DHT22;23991;52.430;10.586;2023-03-23T07:09:33;13.70;73.30
38183;DHT22;23991;52.430;10.586;2023-03-23T07:22:09;14.30;71.00
38183;DHT22;23991;52.430;10.586;2023-03-23T07:24:35;14.60;70.30
38183;DHT22;23991;52.430;10.586;2023-03-23T07:27:01;14.70;69.90
38183;DHT22;23991;52.430;10.586;2023-03-23T07:29:27;14.90;69.20
38183;DHT22;23991;52.430;10.586;2023-03-23T07:32:13;15.20;68.30
38183;DHT22;23991;52.430;10.586;2023-03-23T07:34:39;15.40;67.20
38183;DHT22;23991;52.430;10.586;2023-03-23T07:37:25;15.40;66.70
38183;DHT22;23991;52.430;10.586;2023-03-23T07:39:51;15.40;66.70
38183;DHT22;23991;52.430;10.586;2023-03-23T07:42:19;15.50;66.20
38183;DHT22;23991;52.430;10.586;2023-03-23T07:44:48;15.60;65.60
38183;DHT22;23991;52.430;10.586;2023-03-23T07:47:14;15.60;65.70
38183;DHT22;23991;52.430;10.586;2023-03-23T07:49:43;15.40;65.80
38183;DHT22;23991;52.430;10.586;2023-03-23T07:52:11;15.60;65.90
38183;DHT22;23991;52.430;10.586;2023-03-23T07:54:42;15.70;65.40
38183;DHT22;23991;52.430;10.586;2023-03-23T07:57:08;15.80;65.30
38183;DHT22;23991;52.430;10.586;2023-03-23T07:59:37;15.90;65.30
38183;DHT22;23991;52.430;10.586;2023-03-23T08:02:12;16.10;64.50
38183;DHT22;23991;52.430;10.586;2023-03-23T08:04:47;16.20;64.30
38183;DHT22;23991;52.430;10.586;2023-03-23T08:07:23;16.40;63.30
38183;DHT22;23991;52.430;10.586;2023-03-23T08:09:49;16.60;62.70
38183;DHT22;23991;52.430;10.586;2023-03-23T08:12:14;16.80;62.60
38183;DHT22;23991;52.430;10.586;2023-03-23T08:14:40;17.10;61.70
38183;DHT22;23991;52.430;10.586;2023-03-23T08:17:07;17.30;60.70
38183;DHT22;23991;52.430;10.586;2023-03-23T08:19:34;17.30;60.30
38183;DHT22;23991;52.430;10.586;2023-03-23T08:22:03;17.70;59.40
38183;DHT22;23991;52.430;10.586;2023-03-23T08:24:28;17.90;58.50
38183;DHT22;23991;52.430;10.586;2023-03-23T08:26:54;18.00;57.80
38183;DHT22;23991;52.430;10.586;2023-03-23T08:29:19;18.20;57.30
38183;DHT22;23991;52.430;10.586;2023-03-23T08:31:45;18.20;57.10
38183;DHT22;23991;52.430;10.586;2023-03-23T08:34:10;18.30;56.60
38183;DHT22;23991;52.430;10.586;2023-03-23T08:36:36;18.30;56.70
38183;DHT22;23991;52.430;10.586;2023-03-23T08:39:03;18.30;56.30
38183;DHT22;23991;52.430;10.586;2023-03-23T08:41:30;18.20;56.80
38183;DHT22;23991;52.430;10.586;2023-03-23T08:43:56;18.20;56.90
38183;DHT22;23991;52.430;10.586;2023-03-23T08:46:22;18.30;56.40
38183;DHT22;23991;52.430;10.586;2023-03-23T08:48:47;18.50;55.80
38183;DHT22;23991;52.430;10.586;2023-03-23T08:51:13;18.60;55.80
38183;DHT22;23991;52.430;10.586;2023-03-23T09:00:23;18.80;55.40
38183;DHT22;23991;52.430;10.586;2023-03-23T09:02:52;18.90;54.80
38183;DHT22;23991;52.430;10.586;2023-03-23T09:05:21;19.00;54.70
38183;DHT22;23991;52.430;10.586;2023-03-23T09:07:49;19.10;54.80
38183;DHT22;23991;52.430;10.586;2023-03-23T09:10:16;19.30;54.30
38183;DHT22;23991;52.430;10.586;2023-03-23T09:12:43;19.30;54.00
38183;DHT22;23991;52.430;10.586;2023-03-23T09:15:12;19.30;53.80
38183;DHT22;23991;52.430;10.586;2023-03-23T09:17:41;19.40;54.00
38183;DHT22;23991;52.430;10.586;2023-03-23T09:20:08;19.40;53.50
38183;DHT22;23991;52.430;10.586;2023-03-23T09:32:45;19.20;52.00
38183;DHT22;23991;52.430;10.586;2023-03-23T09:35:11;19.20;52.50
38183;DHT22;23991;52.430;10.586;2023-03-23T09:37:41;19.20;52.40
38183;DHT22;23991;52.430;10.586;2023-03-23T09:40:14;19.10;52.90
38183;DHT22;23991;52.430;10.586;2023-03-23T09:45:51;19.40;51.80
38183;DHT22;23991;52.430;10.586;2023-03-23T09:50:54;19.60;51.60
38183;DHT22;23991;52.430;10.586;2023-03-23T09:53:27;19.70;51.10
38183;DHT22;23991;52.430;10.586;2023-03-23T10:03:06;19.30;50.70
38183;DHT22;23991;52.430;10.586;2023-03-23T10:05:40;19.30;51.00
38183;DHT22;23991;52.430;10.586;2023-03-23T10:08:13;19.20;51.30
38183;DHT22;23991;52.430;10.586;2023-03-23T10:16:36;19.10;51.00
38183;DHT22;23991;52.430;10.586;2023-03-23T10:19:20;19.10;51.70
38183;DHT22;23991;52.430;10.586;2023-03-23T10:31:59;18.90;50.90
38183;DHT22;23991;52.430;10.586;2023-03-23T10:34:42;18.80;51.10
38183;DHT22;23991;52.430;10.586;2023-03-23T10:37:25;18.80;50.80
38183;DHT22;23991;52.430;10.586;2023-03-23T10:39:56;18.90;51.10
38183;DHT22;23991;52.430;10.586;2023-03-23T10:42:32;18.90;51.40
38183;DHT22;23991;52.430;10.586;2023-03-23T10:45:11;19.00;51.30
38183;DHT22;23991;52.430;10.586;2023-03-23T10:47:40;19.20;50.50
38183;DHT22;23991;52.430;10.586;2023-03-23T10:50:12;19.20;50.90
38183;DHT22;23991;52.430;10.586;2023-03-23T10:52:41;19.10;50.80
38183;DHT22;23991;52.430;10.586;2023-03-23T10:55:21;19.00;50.70
38183;DHT22;23991;52.430;10.586;2023-03-23T10:58:07;19.00;51.10
38183;DHT22;23991;52.430;10.586;2023-03-23T11:00:41;18.90;51.60
38183;DHT22;23991;52.430;10.586;2023-03-23T11:06:22;19.20;50.40
38183;DHT22;23991;52.430;10.586;2023-03-23T11:09:11;19.10;50.40
38183;DHT22;23991;52.430;10.586;2023-03-23T11:11:39;19.00;50.90
38183;DHT22;23991;52.430;10.586;2023-03-23T11:14:35;19.10;50.80
38183;DHT22;23991;52.430;10.586;2023-03-23T11:17:18;19.30;50.60
38183;DHT22;23991;52.430;10.586;2023-03-23T11:19:47;19.20;50.50
38183;DHT22;23991;52.430;10.586;2023-03-23T11:22:35;19.30;50.00
38183;DHT22;23991;52.430;10.586;2023-03-23T11:25:04;19.50;49.70
38183;DHT22;23991;52.430;10.586;2023-03-23T11:27:30;19.60;48.70
38183;DHT22;23991;52.430;10.586;2023-03-23T11:30:01;19.80;48.30
38183;DHT22;23991;52.430;10.586;2023-03-23T11:32:34;20.30;47.10
38183;DHT22;23991;52.430;10.586;2023-03-23T11:35:03;20.30;46.40
38183;DHT22;23991;52.430;10.586;2023-03-23T11:37:40;20.50;46.50
38183;DHT22;23991;52.430;10.586;2023-03-23T11:42:38;21.60;43.50
38183;DHT22;23991;52.430;10.586;2023-03-23T11:45:25;22.50;41.90
38183;DHT22;23991;52.430;10.586;2023-03-23T11:51:04;23.70;39.30
38183;DHT22;23991;52.430;10.586;2023-03-23T11:56:29;23.70;38.60
38183;DHT22;23991;52.430;10.586;2023-03-23T11:58:57;23.50;38.20
38183;DHT22;23991;52.430;10.586;2023-03-23T12:04:12;23.20;39.30
38183;DHT22;23991;52.430;10.586;2023-03-23T12:31:03;23.50;37.70
38183;DHT22;23991;52.430;10.586;2023-03-23T12:42:47;24.80;36.30
38183;DHT22;23991;52.430;10.586;2023-03-23T12:45:25;24.40;35.50
38183;DHT22;23991;52.430;10.586;2023-03-23T12:48:07;24.40;36.10
38183;DHT22;23991;52.430;10.586;2023-03-23T12:50:48;24.40;36.00
38183;DHT22;23991;52.430;10.586;2023-03-23T12:53:27;24.00;35.80
38183;DHT22;23991;52.430;10.586;2023-03-23T12:58:46;23.40;36.80
38183;DHT22;23991;52.430;10.586;2023-03-23T13:01:19;23.40;37.10
38183;DHT22;23991;52.430;10.586;2023-03-23T13:04:07;23.00;38.00
38183;DHT22;23991;52.430;10.586;2023-03-23T13:12:02;20.90;49.70
38183;DHT22;23991;52.430;10.586;2023-03-23T13:20:13;19.30;55.90
38183;DHT22;23991;52.430;10.586;2023-03-23T13:28:27;19.00;56.10
38183;DHT22;23991;52.430;10.586;2023-03-23T13:31:04;19.10;56.30
38183;DHT22;23991;52.430;10.586;2023-03-23T13:33:37;19.20;55.20
38183;DHT22;23991;52.430;10.586;2023-03-23T13:36:11;19.30;55.00
38183;DHT22;23991;52.430;10.586;2023-03-23T13:38:49;19.30;54.80
38183;DHT22;23991;52.430;10.586;2023-03-23T13:41:17;19.30;53.80
38183;DHT22;23991;52.430;10.586;2023-03-23T13:43:44;19.40;54.30
38183;DHT22;23991;52.430;10.586;2023-03-23T13:46:26;19.30;53.10
38183;DHT22;23991;52.430;10.586;2023-03-23T13:51:52;19.20;52.90
38183;DHT22;23991;52.430;10.586;2023-03-23T13:54:40;18.90;53.60
38183;DHT22;23991;52.430;10.586;2023-03-23T13:57:34;19.10;53.60
38183;DHT22;23991;52.430;10.586;2023-03-23T14:02:41;19.10;53.20
38183;DHT22;23991;52.430;10.586;2023-03-23T14:10:44;19.00;51.10
38183;DHT22;23991;52.430;10.586;2023-03-23T14:16:04;19.30;49.30
38183;DHT22;23991;52.430;10.586;2023-03-23T14:18:38;19.10;49.50
38183;DHT22;23991;52.430;10.586;2023-03-23T14:21:17;19.30;49.80
38183;DHT22;23991;52.430;10.586;2023-03-23T14:23:46;19.50;48.40
38183;DHT22;23991;52.430;10.586;2023-03-23T14:26:16;19.60;48.20
38183;DHT22;23991;52.430;10.586;2023-03-23T14:28:44;19.60;47.40
38183;DHT22;23991;52.430;10.586;2023-03-23T14:31:28;19.80;47.20
38183;DHT22;23991;52.430;10.586;2023-03-23T14:34:15;19.40;46.90
38183;DHT22;23991;52.430;10.586;2023-03-23T14:36:55;19.30;47.50
38183;DHT22;23991;52.430;10.586;2023-03-23T14:42:04;19.30;48.00
38183;DHT22;23991;52.430;10.586;2023-03-23T14:44:33;18.80;49.20
38183;DHT22;23991;52.430;10.586;2023-03-23T14:47:05;18.30;51.40
38183;DHT22;23991;52.430;10.586;2023-03-23T14:49:37;18.50;52.00
38183;DHT22;23991;52.430;10.586;2023-03-23T14:52:33;18.40;53.50
38183;DHT22;23991;52.430;10.586;2023-03-23T14:55:18;18.10;55.00
38183;DHT22;23991;52.430;10.586;2023-03-23T14:57:49;17.90;56.30
38183;DHT22;23991;52.430;10.586;2023-03-23T15:00:18;17.80;56.50
38183;DHT22;23991;52.430;10.586;2023-03-23T15:02:48;17.80;56.40
38183;DHT22;23991;52.430;10.586;2023-03-23T15:05:27;17.80;56.90
38183;DHT22;23991;52.430;10.586;2023-03-23T15:07:59;17.70;57.70
38183;DHT22;23991;52.430;10.586;2023-03-23T15:10:29;17.60;58.10
38183;DHT22;23991;52.430;10.586;2023-03-23T15:12:55;17.50;58.60
38183;DHT22;23991;52.430;10.586;2023-03-23T15:15:29;17.50;59.30
38183;DHT22;23991;52.430;10.586;2023-03-23T15:17:56;17.60;59.20
38183;DHT22;23991;52.430;10.586;2023-03-23T15:20:25;17.40;59.20
38183;DHT22;23991;52.430;10.586;2023-03-23T15:22:52;17.30;59.60
38183;DHT22;23991;52.430;10.586;2023-03-23T15:25:30;17.40;59.30
38183;DHT22;23991;52.430;10.586;2023-03-23T15:28:06;17.40;59.00
38183;DHT22;23991;52.430;10.586;2023-03-23T15:30:37;17.60;58.50
38183;DHT22;23991;52.430;10.586;2023-03-23T15:33:12;17.40;58.90
38183;DHT22;23991;52.430;10.586;2023-03-23T15:35:40;17.40;58.90
38183;DHT22;23991;52.430;10.586;2023-03-23T15:38:24;17.30;58.90
38183;DHT22;23991;52.430;10.586;2023-03-23T15:40:52;17.30;59.00
38183;DHT22;23991;52.430;10.586;2023-03-23T15:52:55;16.90;60.20
38183;DHT22;23991;52.430;10.586;2023-03-23T15:55:25;17.00;60.10
38183;DHT22;23991;52.430;10.586;2023-03-23T15:57:52;17.00;60.10
38183;DHT22;23991;52.430;10.586;2023-03-23T16:00:21;17.00;60.30
38183;DHT22;23991;52.430;10.586;2023-03-23T16:02:49;17.00;60.30
38183;DHT22;23991;52.430;10.586;2023-03-23T16:05:17;17.00;60.30
38183;DHT22;23991;52.430;10.586;2023-03-23T16:07:42;17.10;60.40
38183;DHT22;23991;52.430;10.586;2023-03-23T16:10:20;17.20;59.90
38183;DHT22;23991;52.430;10.586;2023-03-23T16:12:46;17.30;59.60
38183;DHT22;23991;52.430;10.586;2023-03-23T16:15:13;17.10;60.00
38183;DHT22;23991;52.430;10.586;2023-03-23T16:17:39;16.90;60.70
38183;DHT22;23991;52.430;10.586;2023-03-23T16:20:14;17.10;60.80
38183;DHT22;23991;52.430;10.586;2023-03-23T16:22:40;17.10;61.00
38183;DHT22;23991;52.430;10.586;2023-03-23T16:25:07;17.20;60.90
38183;DHT22;23991;52.430;10.586;2023-03-23T16:27:33;17.30;60.50
38183;DHT22;23991;52.430;10.586;2023-03-23T16:29:58;17.30;60.20
38183;DHT22;23991;52.430;10.586;2023-03-23T16:32:27;17.60;59.60
38183;DHT22;23991;52.430;10.586;2023-03-23T16:41:37;17.90;58.30
38183;DHT22;23991;52.430;10.586;2023-03-23T16:44:02;18.10;57.30
38183;DHT22;23991;52.430;10.586;2023-03-23T16:46:28;17.90;57.60
38183;DHT22;23991;52.430;10.586;2023-03-23T16:48:54;17.90;57.70
38183;DHT22;23991;52.430;10.586;2023-03-23T16:51:20;17.80;57.50
38183;DHT22;23991;52.430;10.586;2023-03-23T16:53:46;17.90;57.30
38183;DHT22;23991;52.430;10.586;2023-03-23T16:56:12;17.80;57.30
38183;DHT22;23991;52.430;10.586;2023-03-23T16:58:37;17.80;57.50
38183;DHT22;23991;52.430;10.586;2023-03-23T17:01:03;17.60;58.10
38183;DHT22;23991;52.430;10.586;2023-03-23T17:10:33;17.40;58.30
38183;DHT22;23991;52.430;10.586;2023-03-23T17:12:58;17.40;58.50
38183;DHT22;23991;52.430;10.586;2023-03-23T17:15:24;17.30;58.70
38183;DHT22;23991;52.430;10.586;2023-03-23T17:17:51;17.30;58.80
38183;DHT22;23991;52.430;10.586;2023-03-23T17:20:17;17.30;58.70
38183;DHT22;23991;52.430;10.586;2023-03-23T17:22:43;17.20;59.10
38183;DHT22;23991;52.430;10.586;2023-03-23T17:25:12;17.20;59.00
38183;DHT22;23991;52.430;10.586;2023-03-23T17:27:38;17.10;59.40
38183;DHT22;23991;52.430;10.586;2023-03-23T17:30:05;17.00;59.20
38183;DHT22;23991;52.430;10.586;2023-03-23T17:32:33;17.00;59.50
38183;DHT22;23991;52.430;10.586;2023-03-23T17:35:03;16.90;60.10
38183;DHT22;23991;52.430;10.586;2023-03-23T17:37:34;16.90;60.20
38183;DHT22;23991;52.430;10.586;2023-03-23T17:40:05;16.70;60.80
38183;DHT22;23991;52.430;10.586;2023-03-23T17:42:35;16.80;61.00
38183;DHT22;23991;52.430;10.586;2023-03-23T17:45:05;16.60;61.10
38183;DHT22;23991;52.430;10.586;2023-03-23T17:47:32;16.50;61.50
38183;DHT22;23991;52.430;10.586;2023-03-23T17:49:57;16.50;61.60
38183;DHT22;23991;52.430;10.586;2023-03-23T17:52:23;16.50;61.50
38183;DHT22;23991;52.430;10.586;2023-03-23T17:54:49;16.30;62.10
38183;DHT22;23991;52.430;10.586;2023-03-23T17:57:17;16.20;62.30
38183;DHT22;23991;52.430;10.586;2023-03-23T17:59:43;16.10;62.70
38183;DHT22;23991;52.430;10.586;2023-03-23T18:02:10;16.10;62.60
38183;DHT22;23991;52.430;10.586;2023-03-23T18:04:38;16.00;63.00
38183;DHT22;23991;52.430;10.586;2023-03-23T18:07:13;15.90;63.20
38183;DHT22;23991;52.430;10.586;2023-03-23T18:09:48;15.90;63.40
38183;DHT22;23991;52.430;10.586;2023-03-23T18:12:15;15.80;63.50
38183;DHT22;23991;52.430;10.586;2023-03-23T18:14:41;15.90;63.50
38183;DHT22;23991;52.430;10.586;2023-03-23T18:17:08;15.70;64.00
38183;DHT22;23991;52.430;10.586;2023-03-23T18:20:08;15.70;64.30
38183;DHT22;23991;52.430;10.586;2023-03-23T18:22:38;15.70;64.30
38183;DHT22;23991;52.430;10.586;2023-03-23T18:25:14;15.70;64.40
38183;DHT22;23991;52.430;10.586;2023-03-23T18:27:40;15.60;64.60
38183;DHT22;23991;52.430;10.586;2023-03-23T18:30:07;15.50;64.90
38183;DHT22;23991;52.430;10.586;2023-03-23T18:32:37;15.40;65.20
38183;DHT22;23991;52.430;10.586;2023-03-23T18:38:21;15.30;65.80
38183;DHT22;23991;52.430;10.586;2023-03-23T18:40:47;15.30;66.20
38183;DHT22;23991;52.430;10.586;2023-03-23T18:43:33;15.30;66.10
38183;DHT22;23991;52.430;10.586;2023-03-23T18:45:58;15.30;66.00
38183;DHT22;23991;52.430;10.586;2023-03-23T18:48:24;15.30;65.90
38183;DHT22;23991;52.430;10.586;2023-03-23T18:50:52;15.20;66.40
38183;DHT22;23991;52.430;10.586;2023-03-23T18:53:18;15.10;66.60
38183;DHT22;23991;52.430;10.586;2023-03-23T18:55:50;15.10;66.70
38183;DHT22;23991;52.430;10.586;2023-03-23T18:58:17;14.90;67.30
38183;DHT22;23991;52.430;10.586;2023-03-23T19:00:44;14.80;67.70
38183;DHT22;23991;52.430;10.586;2023-03-23T19:03:12;14.80;67.90
38183;DHT22;23991;52.430;10.586;2023-03-23T19:05:39;14.70;68.30
38183;DHT22;23991;52.430;10.586;2023-03-23T19:08:06;14.70;68.50
38183;DHT22;23991;52.430;10.586;2023-03-23T19:10:36;14.60;68.70
38183;DHT22;23991;52.430;10.586;2023-03-23T19:13:02;14.60;69.00
38183;DHT22;23991;52.430;10.586;2023-03-23T19:15:28;14.60;69.10
38183;DHT22;23991;52.430;10.586;2023-03-23T19:17:53;14.40;69.60
38183;DHT22;23991;52.430;10.586;2023-03-23T19:20:23;14.40;69.70
38183;DHT22;23991;52.430;10.586;2023-03-23T19:22:49;14.40;70.00
38183;DHT22;23991;52.430;10.586;2023-03-23T19:25:15;14.30;70.30
38183;DHT22;23991;52.430;10.586;2023-03-23T19:27:40;14.20;70.70
38183;DHT22;23991;52.430;10.586;2023-03-23T19:30:28;14.20;70.90
38183;DHT22;23991;52.430;10.586;2023-03-23T19:33:03;14.10;71.30
38183;DHT22;23991;52.430;10.586;2023-03-23T19:35:30;14.10;71.60
38183;DHT22;23991;52.430;10.586;2023-03-23T19:37:55;14.10;71.90
38183;DHT22;23991;52.430;10.586;2023-03-23T19:40:21;14.00;72.30
38183;DHT22;23991;52.430;10.586;2023-03-23T19:42:46;14.00;72.40
38183;DHT22;23991;52.430;10.586;2023-03-23T19:45:12;14.00;72.50
38183;DHT22;23991;52.430;10.586;2023-03-23T19:47:37;13.80;73.00
38183;DHT22;23991;52.430;10.586;2023-03-23T19:50:03;13.90;73.00
38183;DHT22;23991;52.430;10.586;2023-03-23T20:02:35;13.70;73.60
38183;DHT22;23991;52.430;10.586;2023-03-23T20:05:01;13.60;73.50
38183;DHT22;23991;52.430;10.586;2023-03-23T20:07:27;13.70;73.60
38183;DHT22;23991;52.430;10.586;2023-03-23T20:09:52;13.60;73.60
38183;DHT22;23991;52.430;10.586;2023-03-23T20:12:27;13.50;73.80
38183;DHT22;23991;52.430;10.586;2023-03-23T20:14:55;13.40;74.00
38183;DHT22;23991;52.430;10.586;2023-03-23T20:17:23;13.40;74.20
38183;DHT22;23991;52.430;10.586;2023-03-23T20:19:53;13.40;74.30
38183;DHT22;23991;52.430;10.586;2023-03-23T20:22:30;13.40;74.40
38183;DHT22;23991;52.430;10.586;2023-03-23T20:25:05;13.40;74.50
38183;DHT22;23991;52.430;10.586;2023-03-23T20:27:32;13.40;74.70
38183;DHT22;23991;52.430;10.586;2023-03-23T20:29:58;13.30;75.00
38183;DHT22;23991;52.430;10.586;2023-03-23T20:32:24;13.20;75.40
38183;DHT22;23991;52.430;10.586;2023-03-23T20:34:53;13.20;75.70
38183;DHT22;23991;52.430;10.586;2023-03-23T20:37:30;13.20;75.90
38183;DHT22;23991;52.430;10.586;2023-03-23T20:39:59;13.30;75.80
38183;DHT22;23991;52.430;10.586;2023-03-23T20:42:25;13.20;76.20
38183;DHT22;23991;52.430;10.586;2023-03-23T20:45:04;13.20;76.30
38183;DHT22;23991;52.430;10.586;2023-03-23T20:47:30;13.10;76.50
38183;DHT22;23991;52.430;10.586;2023-03-23T20:49:56;13.10;76.60